METAR Data
IDs: Format: Raw Decoded Include TAF

Data at: 0140 UTC 24 Sep 2018

KMDJ 240135Z AUTO 15010KT 10SM CLR 29/23 A2993 RMK A01
KMDJ 240115Z AUTO 15010KT 10SM CLR 29/22 A2992 RMK A01
KMDJ 240055Z AUTO 15009KT 10SM CLR 29/22 A2992 RMK A01
KMDJ 240035Z AUTO 15009KT 10SM CLR 29/22 A2991 RMK A01
KMDJ 240015Z AUTO 14010KT 10SM CLR 29/23 A2991 RMK A01
KMDJ 232355Z AUTO 15010KT 10SM CLR 29/23 A2991 RMK A01
KMDJ 232335Z AUTO 15010KT 10SM CLR 29/23 A2991 RMK A01
KMDJ 232315Z AUTO 15010KT 10SM FEW100 28/23 A2991 RMK A01
KMDJ 232255Z AUTO 15010KT 10SM SCT100 28/24 A2991 RMK A01
KMDJ 232235Z AUTO 14008KT 6SM HZ CLR 27/24 A2991 RMK A01
KMDJ 232215Z AUTO 13010KT 4SM HZ CLR 26/22 A2991 RMK A01
KMDJ 232155Z AUTO 15006KT 1/2SM HZ BKN003 BKN028 26/23 A2992 RMK A01
KMDJ 232135Z AUTO 22013G26KT 1 3/4SM HZ SCT003 OVC029 28/22 A2991 RMK A01 VIS 1/4V5
KMDJ 232115Z AUTO 17004KT 10SM BKN030 BKN036 BKN047 29/23 A2991 RMK A01
KMDJ 232055Z AUTO 16005KT 10SM SCT031 SCT038 29/23 A2992 RMK A01
KMDJ 232035Z AUTO 19006KT 10SM FEW033 FEW040 FEW046 30/23 A2992 RMK A01
KMDJ 232015Z AUTO VRB05KT 10SM FEW032 30/23 A2992 RMK A01
KMDJ 231955Z AUTO 18005KT 10SM FEW032 30/23 A2993 RMK A01
KMDJ 231935Z AUTO 17007KT 10SM FEW032 30/23 A2993 RMK A01
KMDJ 231915Z AUTO 17006KT 10SM CLR 30/23 A2994 RMK A01
KMDJ 231855Z AUTO 19004KT 10SM CLR 30/22 A2995 RMK A01
KMDJ 231835Z AUTO 18006KT 10SM FEW032 30/22 A2996 RMK A01
KMDJ 231815Z AUTO 18007KT 10SM FEW030 30/23 A2997 RMK A01
KMDJ 231755Z AUTO 17007KT 10SM CLR 30/23 A2997 RMK A01
KMDJ 231735Z AUTO 17006KT 10SM CLR 31/23 A2998 RMK A01
KMDJ 231715Z AUTO 17004KT 10SM CLR 31/23 A2998 RMK A01
KMDJ 231655Z AUTO 16006KT 10SM CLR 30/23 A2998 RMK A01
KMDJ 231635Z AUTO 16008KT 10SM FEW030 29/23 A2999 RMK A01
KMDJ 231615Z AUTO 18007KT 10SM CLR 30/23 A2999 RMK A01
KMDJ 231555Z AUTO 18007KT 10SM CLR 30/23 A2999 RMK A01
KMDJ 231535Z AUTO 17007KT 10SM CLR 31/23 A2999 RMK A01
KMDJ 231515Z AUTO 18008KT 10SM FEW029 FEW036 SCT055 30/23 A2999 RMK A01
KMDJ 231455Z AUTO 17007KT 10SM FEW029 SCT036 30/23 A2999 RMK A01
KMDJ 231435Z AUTO 16008KT 10SM CLR 30/23 A2998 RMK A01
KMDJ 231415Z AUTO 17009KT 10SM FEW030 30/23 A2997 RMK A01
KMDJ 231355Z AUTO 17009KT 10SM FEW028 29/23 A2997 RMK A01
KMDJ 231335Z AUTO 17010KT 10SM FEW028 FEW035 29/24 A2997 RMK A01
KMDJ 231315Z AUTO 18008KT 10SM CLR 29/23 A2997 RMK A01
KMDJ 231255Z AUTO 17006KT 10SM CLR 29/23 A2997 RMK A01
KMDJ 231235Z AUTO 17007KT 10SM FEW028 FEW045 SCT060 29/23 A2996 RMK A01
KMDJ 231215Z AUTO 15011KT SCT028 BKN038 BKN046 28/24 A2995 RMK A01
KMDJ 231155Z AUTO 15006KT 10SM SCT037 BKN060 BKN070 29/23 A2994 RMK A01
KMDJ 231135Z AUTO 16008KT 10SM FEW027 FEW032 29/23 A2994 RMK A01
KMDJ 231115Z AUTO 16010KT 10SM FEW028 29/23 A2994 RMK A01
KMDJ 231055Z AUTO 17010KT 10SM FEW028 29/23 A2993 RMK A01
KMDJ 231035Z AUTO 17010KT 10SM FEW038 FEW046 29/23 A2993 RMK A01
KMDJ 231015Z AUTO 18010KT 10SM SCT030 SCT038 BKN046 29/23 A2993 RMK A01
KMDJ 230955Z AUTO 18011KT 10SM SCT029 SCT035 SCT045 29/23 A2993 RMK A01
KMDJ 230935Z AUTO 17011KT 10SM CLR 29/23 A2993 RMK A01
KMDJ 230915Z AUTO 17011KT 10SM FEW029 29/23 A2992 RMK A01
KMDJ 230855Z AUTO 17011KT 10SM FEW029 29/23 A2993 RMK A01
KMDJ 230835Z AUTO 16012KT 10SM FEW029 29/23 A2993 RMK A01
KMDJ 230815Z AUTO 16011KT 10SM FEW029 29/22 A2993 RMK A01
KMDJ 230755Z AUTO 17012KT 10SM FEW028 29/23 A2994 RMK A01
KMDJ 230735Z AUTO 16012KT 10SM FEW033 29/23 A2994 RMK A01
KMDJ 230715Z AUTO 16014KT 10SM FEW030 FEW036 29/23 A2995 RMK A01
KMDJ 230655Z AUTO 17012KT 10SM SCT029 SCT036 29/23 A2995 RMK A01
KMDJ 230635Z AUTO 16012KT 10SM FEW028 SCT035 SCT041 29/23 A2996 RMK A01
KMDJ 230615Z AUTO 15012KT 10SM SCT029 SCT035 29/23 A2996 RMK A01
KMDJ 230555Z AUTO 14012KT 10SM FEW028 29/23 A2996 RMK A01
KMDJ 230535Z AUTO 15012KT 10SM FEW028 29/23 A2996 RMK A01
KMDJ 230515Z AUTO 14015KT 10SM FEW029 FEW034 29/23 A2997 RMK A01
KMDJ 230455Z AUTO 14015KT 10SM FEW030 29/23 A2997 RMK A01
KMDJ 230435Z AUTO 14016KT 10SM FEW029 FEW035 SCT043 29/23 A2997 RMK A01
KMDJ 230415Z AUTO 14014KT 10SM BKN030 BKN041 BKN055 29/23 A2997 RMK A01
KMDJ 230355Z AUTO 14014KT 10SM BKN030 29/23 A2998 RMK A01
KMDJ 230335Z AUTO 14015KT 10SM FEW030 29/23 A2998 RMK A01
KMDJ 230315Z AUTO 13015KT 10SM CLR 29/23 A2998 RMK A01
KMDJ 230255Z AUTO 13015KT 10SM CLR 29/23 A2999 RMK A01
KMDJ 230235Z AUTO 13014KT 10SM CLR 29/23 A2999 RMK A01
KMDJ 230215Z AUTO 13013KT 10SM FEW029 FEW034 29/23 A2999 RMK A01
KMDJ 230155Z AUTO 14013KT 10SM CLR 29/23 A2998 RMK A01
KMDJ 230135Z AUTO 13012KT 10SM CLR 29/23 A2998 RMK A01
KMDJ 230115Z AUTO 13010KT 10SM FEW028 29/23 A2997 RMK A01
KMDJ 230055Z AUTO 14011KT 10SM CLR 29/23 A2997 RMK A01
KMDJ 230035Z AUTO 13010KT 10SM CLR 29/23 A2997 RMK A01
KMDJ 230015Z AUTO 13011KT 10SM FEW026 29/24 A2996 RMK A01
KMDJ 222355Z AUTO 13010KT 10SM CLR 29/24 A2996 RMK A01
KMDJ 222335Z AUTO 13011KT 10SM FEW028 FEW034 SCT042 29/24 A2995 RMK A01
KMDJ 222315Z AUTO 14010KT 10SM SCT029 BKN040 29/24 A2995 RMK A01
KMDJ 222255Z AUTO 14009KT 10SM FEW027 FEW032 29/24 A2995 RMK A01
KMDJ 222235Z AUTO 15011KT 10SM FEW027 29/24 A2995 RMK A01
KMDJ 222215Z AUTO 16011KT 10SM FEW026 29/24 A2995 RMK A01
KMDJ 222155Z AUTO 15012KT 10SM FEW027 FEW038 FEW060 29/24 A2994 RMK A01
KMDJ 222135Z AUTO 14012KT 10SM FEW024 FEW028 SCT060 29/24 A2994 RMK A01
KMDJ 222115Z AUTO 15011KT 10SM CLR 29/24 A2995 RMK A01
KMDJ 222055Z AUTO 15013KT 10SM FEW024 FEW029 29/24 A2994 RMK A01
KMDJ 222035Z AUTO 16015KT 10SM FEW024 FEW029 29/24 A2995 RMK A01
KMDJ 222015Z AUTO 15013KT 10SM FEW025 FEW031 29/24 A2996 RMK A01
KMDJ 221955Z AUTO 14014KT 10SM FEW025 SCT031 29/24 A2996 RMK A01
KMDJ 221935Z AUTO 14011KT 10SM CLR 29/24 A2997 RMK A01
KMDJ 221915Z AUTO 14011KT 10SM FEW026 29/24 A2997 RMK A01
KMDJ 221855Z AUTO 13011KT 10SM CLR 29/24 A2997 RMK A01
KMDJ 221835Z AUTO 14010KT 10SM CLR 29/24 A2999 RMK A01
KMDJ 221815Z AUTO 13011KT 10SM FEW025 29/24 A3000 RMK A01
KMDJ 221755Z AUTO 13011KT 10SM FEW024 29/24 A3000 RMK A01
KMDJ 221735Z AUTO 13011KT 10SM FEW025 FEW030 29/25 A3001 RMK A01
KMDJ 221715Z AUTO 14011KT 10SM SCT024 BKN030 30/25 A3001 RMK A01
KMDJ 221655Z AUTO 14009KT 10SM FEW023 30/25 A3002 RMK A01
KMDJ 221635Z AUTO 14009KT 10SM CLR 30/24 A3002 RMK A01
KMDJ 221615Z AUTO 14010KT 10SM CLR 30/24 A3002 RMK A01
KMDJ 221555Z AUTO 13009KT 10SM CLR 30/24 A3003 RMK A01
KMDJ 221535Z AUTO 13008KT 10SM FEW024 30/24 A3003 RMK A01
KMDJ 221515Z AUTO 14009KT 10SM FEW026 30/24 A3003 RMK A01
KMDJ 221455Z AUTO 14010KT 10SM CLR 30/24 A3002 RMK A01
KMDJ 221435Z AUTO 14009KT 10SM CLR 29/23 A3001 RMK A01
KMDJ 221415Z AUTO 13009KT FEW023 FEW028 29/24 A3001 RMK A01
KMDJ 221355Z AUTO 15008KT 10SM FEW023 FEW029 FEW034 30/24 A3000 RMK A01